Irving North's Hourly Summary for Wednesday, July 4, 2018
Hour Temp
(f)
RH
(%)
Solar Rad.
(MJ/m2)
Rainfall
(in)
Wind
(mph)
7/4/2018 12:00 AM 83 55 0 0 4.04
7/4/2018 1:00 AM 80 59 0 0 3.05
7/4/2018 2:00 AM 80 63 0 0 1.97
7/4/2018 3:00 AM 80 62 0 0 2.95
7/4/2018 4:00 AM 80 64 0 0 3.02
7/4/2018 5:00 AM 79 65 0 0 2.75
7/4/2018 6:00 AM 78 67 0.06 0 2.72
7/4/2018 7:00 AM 80 63 0.61 0 2.71
7/4/2018 8:00 AM 81 60 0.94 0 3.4
7/4/2018 9:00 AM 84 59 1.85 0 3.95
7/4/2018 10:00 AM 85 56 2.32 0 4.18
7/4/2018 11:00 AM 87 54 2.82 0 5.43
7/4/2018 12:00 PM 88 51 2.58 0 7.24
7/4/2018 1:00 PM 89 47 2.82 0 8.83
7/4/2018 2:00 PM 89 50 2.2 0 9.49
7/4/2018 3:00 PM 89 50 2 0 9.2
7/4/2018 4:00 PM 90 45 1.94 0 9.59
7/4/2018 5:00 PM 90 44 0.88 0 9.24
7/4/2018 6:00 PM 90 45 0.89 0 9.59
7/4/2018 7:00 PM 89 48 0.29 0 8.5
7/4/2018 8:00 PM 87 51 0.08 0 7.3
7/4/2018 9:00 PM 85 54 0 0 7.49
7/4/2018 10:00 PM 83 57 0 0 6.94
7/4/2018 11:00 PM 81 62 0 0 7.65
Data Summary 84 55 22.28 0.00 5.88